Time;durP1;ratioP1;P1;durP2;ratioP2;P2;SDS_P1;SDS_P2;PMS_P1;PMS_P2;Temp;Humidity;BMP_temperature;BMP_pressure;BME280_temperature;BME280_humidity;BME280_pressure;Samples;Min_cycle;Max_cycle;Signal;HPM_P1;HPM_P2
2022/07/30 00:02:21;;;;;;;11.52;7.35;;;15.30;99.90;;;;;;5056691;28;20040;-71
2022/07/30 00:04:47;;;;;;;11.20;6.65;;;15.30;99.90;;;;;;5020383;28;20139;-71
2022/07/30 00:07:12;;;;;;;10.98;6.65;;;15.30;99.90;;;;;;5024555;28;20127;-71
2022/07/30 00:09:38;;;;;;;10.75;7.25;;;15.30;99.90;;;;;;5032594;28;20427;-71
2022/07/30 00:12:07;;;;;;;9.85;7.03;;;15.20;99.90;;;;;;5059394;28;20039;-70
2022/07/30 00:14:33;;;;;;;9.60;6.68;;;15.20;99.90;;;;;;5060455;28;20032;-71
2022/07/30 00:17:00;;;;;;;11.00;7.57;;;15.20;99.90;;;;;;5040861;28;20051;-71
2022/07/30 00:19:26;;;;;;;13.15;7.55;;;15.20;99.90;;;;;;5019853;28;20107;-71
2022/07/30 00:21:53;;;;;;;11.60;7.60;;;15.20;99.90;;;;;;5056908;28;20028;-71
2022/07/30 00:24:19;;;;;;;10.63;7.07;;;15.20;99.90;;;;;;5036628;28;20040;-71
2022/07/30 00:26:45;;;;;;;10.13;7.07;;;15.10;99.90;;;;;;5041778;28;20040;-70
2022/07/30 00:29:11;;;;;;;14.43;7.95;;;15.20;99.90;;;;;;5035619;28;20508;-71
2022/07/30 00:31:37;;;;;;;9.68;8.20;;;15.10;99.90;;;;;;5044574;28;20082;-71
2022/07/30 00:34:02;;;;;;;9.57;7.40;;;15.10;99.90;;;;;;5026831;28;20492;-71
2022/07/30 00:36:28;;;;;;;13.10;8.93;;;15.10;99.90;;;;;;5041601;28;20576;-71
2022/07/30 00:38:54;;;;;;;10.40;7.07;;;15.10;99.90;;;;;;5049003;28;20078;-71
2022/07/30 00:41:20;;;;;;;12.20;7.70;;;15.00;99.90;;;;;;5057126;28;20037;-71
2022/07/30 00:43:45;;;;;;;10.90;8.05;;;15.00;99.90;;;;;;5040061;28;20353;-71
2022/07/30 00:46:13;;;;;;;10.45;8.18;;;15.00;99.90;;;;;;5027340;28;20055;-71
2022/07/30 00:48:39;;;;;;;12.60;8.02;;;15.00;99.90;;;;;;5039374;28;20036;-71
2022/07/30 00:51:05;;;;;;;11.90;7.88;;;15.00;99.90;;;;;;5059327;28;20218;-71
2022/07/30 00:53:31;;;;;;;10.18;8.05;;;15.00;99.90;;;;;;5041899;28;20064;-71
2022/07/30 00:55:57;;;;;;;13.32;8.18;;;15.00;99.90;;;;;;5022906;28;20068;-71
2022/07/30 00:58:23;;;;;;;11.88;8.93;;;14.90;99.90;;;;;;5039799;28;20569;-71
2022/07/30 01:00:48;;;;;;;15.98;10.35;;;14.90;99.90;;;;;;5042665;28;20040;-71
2022/07/30 01:03:14;;;;;;;13.80;9.85;;;14.90;99.90;;;;;;5064120;28;20497;-71
2022/07/30 01:05:40;;;;;;;12.35;8.73;;;14.90;99.90;;;;;;5040025;28;20450;-71
2022/07/30 01:08:06;;;;;;;14.05;9.18;;;14.80;99.90;;;;;;5042247;28;20505;-71
2022/07/30 01:10:31;;;;;;;10.18;8.15;;;14.80;99.90;;;;;;5036609;28;20037;-71
2022/07/30 01:12:58;;;;;;;12.40;8.50;;;14.80;99.90;;;;;;5063870;28;20068;-70
2022/07/30 01:15:25;;;;;;;11.27;8.32;;;14.80;99.90;;;;;;5054661;28;20036;-71
2022/07/30 01:17:52;;;;;;;12.98;8.85;;;14.80;99.90;;;;;;5039113;28;20041;-71
2022/07/30 01:20:24;;;;;;;12.07;8.48;;;14.70;99.90;;;;;;5056944;28;20452;-70
2022/07/30 01:22:59;;;;;;;;;;;14.70;99.90;;;;;;5023242;28;20041;-71
2022/07/30 01:25:31;;;;;;;10.18;8.07;;;14.70;99.90;;;;;;5022513;28;19964;-71
2022/07/30 01:28:06;;;;;;;10.57;7.97;;;14.70;99.90;;;;;;5045108;28;20037;-70
2022/07/30 01:30:35;;;;;;;12.32;9.23;;;14.70;99.90;;;;;;5029169;28;20386;-71
2022/07/30 01:33:03;;;;;;;11.23;8.07;;;14.60;99.90;;;;;;5042777;28;20532;-71
2022/07/30 01:35:31;;;;;;;12.93;8.18;;;14.60;99.90;;;;;;5043253;28;20093;-70
2022/07/30 01:37:59;;;;;;;12.57;8.45;;;14.60;99.90;;;;;;5040784;28;20401;-71
2022/07/30 01:40:26;;;;;;;12.43;8.68;;;14.60;99.90;;;;;;5057647;28;20436;-71
2022/07/30 01:42:54;;;;;;;15.32;9.68;;;14.60;99.90;;;;;;5057969;28;20044;-71
2022/07/30 01:45:22;;;;;;;17.48;10.50;;;14.60;99.90;;;;;;5024124;28;20186;-71
2022/07/30 01:47:51;;;;;;;11.75;9.25;;;14.60;99.90;;;;;;5018500;28;20545;-70
2022/07/30 01:50:18;;;;;;;15.27;10.60;;;14.60;99.90;;;;;;5035882;28;20041;-70
2022/07/30 01:52:47;;;;;;;13.63;10.32;;;14.60;99.90;;;;;;5023008;28;20040;-71
2022/07/30 01:55:24;;;;;;;14.15;9.70;;;14.60;99.90;;;;;;5023248;28;20120;-70
2022/07/30 01:57:51;;;;;;;15.63;11.55;;;14.50;99.90;;;;;;5022880;28;20037;-70
2022/07/30 02:00:17;;;;;;;17.17;10.45;;;14.50;99.90;;;;;;5007399;28;20045;-71
2022/07/30 02:02:44;;;;;;;15.30;10.50;;;14.40;99.90;;;;;;5024522;28;20031;-71
2022/07/30 02:05:11;;;;;;;15.30;10.50;;;14.40;99.90;;;;;;5001485;28;20044;-71
2022/07/30 02:07:48;;;;;;;11.27;9.52;;;14.40;99.90;;;;;;5036782;28;20116;-71
2022/07/30 02:10:21;;;;;;;15.82;11.48;;;14.30;99.90;;;;;;5020266;28;20364;-71
2022/07/30 02:12:54;;;;;;;13.68;10.52;;;14.30;99.90;;;;;;5035209;28;20111;-71
2022/07/30 02:15:33;;;;;;;14.02;10.77;;;14.20;99.90;;;;;;5020196;28;20065;-70
2022/07/30 02:18:18;;;;;;;14.48;11.20;;;14.20;99.90;;;;;;5022759;28;20529;-71
2022/07/30 02:20:48;;;;;;;19.00;11.35;;;14.10;99.90;;;;;;5004070;28;20075;-71
2022/07/30 02:23:15;;;;;;;14.20;10.88;;;14.10;99.90;;;;;;5019519;28;20052;-71
2022/07/30 02:25:46;;;;;;;19.23;11.27;;;14.10;99.90;;;;;;5042878;28;20041;-71
2022/07/30 02:28:14;;;;;;;14.57;10.30;;;14.00;99.90;;;;;;5034383;28;20134;-71
2022/07/30 02:30:48;;;;;;;15.90;11.68;;;14.00;99.90;;;;;;5020992;28;20319;-70
2022/07/30 02:33:17;;;;;;;15.57;12.00;;;14.00;99.90;;;;;;5016955;28;20080;-71
2022/07/30 02:35:44;;;;;;;20.25;12.95;;;14.00;99.90;;;;;;5032246;28;20037;-71
2022/07/30 02:38:12;;;;;;;17.98;13.57;;;14.00;99.90;;;;;;5037844;28;20029;-70
2022/07/30 02:40:41;;;;;;;18.77;11.80;;;14.00;99.90;;;;;;5023115;28;20079;-70
2022/07/30 02:43:06;;;;;;;14.90;12.52;;;13.90;99.90;;;;;;5016631;28;20494;-71
2022/07/30 02:45:33;;;;;;;19.38;12.30;;;13.90;99.90;;;;;;5035564;28;20088;-70
2022/07/30 02:48:06;;;;;;;18.98;13.52;;;13.90;99.90;;;;;;5041923;28;20447;-71
2022/07/30 02:50:33;;;;;;;17.75;13.40;;;13.90;99.90;;;;;;5038933;28;20513;-71
2022/07/30 02:53:00;;;;;;;22.17;12.90;;;13.90;99.90;;;;;;5035462;28;20558;-71
2022/07/30 02:55:28;;;;;;;18.73;13.73;;;13.90;99.90;;;;;;5038937;28;20037;-71
2022/07/30 02:57:56;;;;;;;15.50;11.60;;;13.80;99.90;;;;;;5038012;28;20044;-71
2022/07/30 03:00:23;;;;;;;16.83;11.70;;;13.80;99.90;;;;;;5037055;28;20284;-70
2022/07/30 03:02:51;;;;;;;15.35;12.05;;;13.80;99.90;;;;;;5024393;28;20055;-71
2022/07/30 03:05:18;;;;;;;15.32;10.88;;;13.80;99.90;;;;;;5038128;28;20040;-70
2022/07/30 03:07:45;;;;;;;14.13;11.02;;;13.80;99.90;;;;;;5019168;28;20040;-71
2022/07/30 03:10:12;;;;;;;16.42;12.02;;;13.80;99.90;;;;;;5038388;28;20039;-71
2022/07/30 03:12:40;;;;;;;16.10;11.95;;;13.80;99.90;;;;;;5034207;28;20041;-70
2022/07/30 03:15:07;;;;;;;19.30;13.38;;;13.80;99.90;;;;;;5038411;28;20048;-70
2022/07/30 03:17:38;;;;;;;20.35;13.90;;;13.80;99.90;;;;;;5038558;28;20486;-70
2022/07/30 03:20:09;;;;;;;14.30;10.90;;;13.70;99.90;;;;;;5037284;28;20084;-71
2022/07/30 03:22:40;;;;;;;15.93;11.52;;;13.80;99.90;;;;;;5023860;28;20037;-71
2022/07/30 03:25:08;;;;;;;16.90;11.32;;;13.70;99.90;;;;;;5037441;28;20607;-71
2022/07/30 03:27:37;;;;;;;18.35;11.35;;;13.70;99.90;;;;;;5051450;28;20045;-70
2022/07/30 03:30:04;;;;;;;13.55;10.07;;;13.60;99.90;;;;;;5039829;28;20116;-71
2022/07/30 03:32:30;;;;;;;18.42;11.32;;;13.70;99.90;;;;;;5041414;28;20045;-71
2022/07/30 03:34:58;;;;;;;14.30;10.50;;;13.60;99.90;;;;;;5037426;28;20036;-71
2022/07/30 03:37:25;;;;;;;14.75;11.55;;;13.60;99.90;;;;;;5038980;28;20046;-71
2022/07/30 03:39:52;;;;;;;13.68;9.95;;;13.60;99.90;;;;;;5058183;28;20579;-70
2022/07/30 03:42:19;;;;;;;15.38;10.57;;;13.60;99.90;;;;;;5039947;28;20089;-71
2022/07/30 03:44:46;;;;;;;14.73;11.27;;;13.60;99.90;;;;;;5054735;28;20467;-70
2022/07/30 03:47:13;;;;;;;17.35;10.90;;;13.50;99.90;;;;;;5038064;28;20041;-71
2022/07/30 03:49:39;;;;;;;15.90;10.30;;;13.50;99.90;;;;;;5032790;28;20064;-70
2022/07/30 03:52:05;;;;;;;14.55;11.40;;;13.50;99.90;;;;;;5037073;28;20516;-70
2022/07/30 03:54:35;;;;;;;14.38;10.73;;;13.50;99.90;;;;;;5052732;28;20048;-71
2022/07/30 03:57:02;;;;;;;15.77;11.18;;;13.50;99.90;;;;;;5040000;28;20036;-70
2022/07/30 03:59:29;;;;;;;18.13;11.02;;;13.40;99.90;;;;;;5023398;28;20064;-70
2022/07/30 04:02:02;;;;;;;13.63;11.10;;;13.40;99.90;;;;;;5062615;28;20539;-70
2022/07/30 04:04:29;;;;;;;17.13;12.30;;;13.50;99.90;;;;;;5027674;28;20049;-70
2022/07/30 04:06:56;;;;;;;17.48;11.70;;;13.50;99.90;;;;;;5026289;28;20032;-70
2022/07/30 04:09:23;;;;;;;15.60;12.05;;;13.50;99.90;;;;;;5043604;28;20090;-71
2022/07/30 04:11:49;;;;;;;18.15;12.07;;;13.40;99.90;;;;;;5062412;28;20042;-70
2022/07/30 04:14:14;;;;;;;13.52;11.70;;;13.50;99.90;;;;;;5054878;28;20037;-70
2022/07/30 04:16:52;;;;;;;17.02;11.30;;;13.50;99.90;;;;;;5046676;28;20448;-70
2022/07/30 04:19:25;;;;;;;21.10;12.30;;;13.50;99.90;;;;;;5040565;28;20565;-71
2022/07/30 04:21:52;;;;;;;17.30;12.02;;;13.50;99.90;;;;;;5040933;28;20097;-70
2022/07/30 04:24:19;;;;;;;15.30;10.93;;;13.50;99.90;;;;;;5062604;28;20045;-71
2022/07/30 04:26:46;;;;;;;14.88;11.80;;;13.60;99.90;;;;;;5027869;28;20040;-71
2022/07/30 04:29:12;;;;;;;14.50;12.23;;;13.60;99.90;;;;;;5024161;28;20039;-71
2022/07/30 04:31:38;;;;;;;15.45;12.13;;;13.60;99.90;;;;;;5039896;28;20037;-71
2022/07/30 04:34:04;;;;;;;17.42;13.02;;;13.60;99.90;;;;;;5045523;28;20605;-70
2022/07/30 04:36:31;;;;;;;14.60;11.50;;;13.60;99.90;;;;;;5040973;28;20127;-70
2022/07/30 04:38:58;;;;;;;19.17;12.57;;;13.60;99.90;;;;;;5046045;28;20514;-70
2022/07/30 04:41:25;;;;;;;17.77;12.82;;;13.60;99.90;;;;;;5034329;28;20047;-70
2022/07/30 04:43:51;;;;;;;16.48;12.27;;;13.60;99.90;;;;;;5055614;28;20107;-70
2022/07/30 04:46:17;;;;;;;15.32;11.98;;;13.70;99.90;;;;;;5029739;28;20371;-70
2022/07/30 04:48:44;;;;;;;14.63;11.57;;;13.70;99.90;;;;;;5030778;28;20033;-71
2022/07/30 04:51:22;;;;;;;15.65;12.07;;;13.70;99.90;;;;;;5029874;28;20551;-70
2022/07/30 04:53:49;;;;;;;15.43;11.85;;;13.80;99.90;;;;;;5045366;28;20041;-70
2022/07/30 04:56:17;;;;;;;15.25;12.20;;;13.80;99.90;;;;;;5030614;28;20086;-71
2022/07/30 04:58:44;;;;;;;15.68;11.88;;;13.80;99.90;;;;;;5027708;28;20821;-70
2022/07/30 05:01:14;;;;;;;16.50;11.80;;;13.90;99.90;;;;;;5028607;28;20079;-70
2022/07/30 05:03:40;;;;;;;16.15;13.07;;;13.90;99.90;;;;;;5047262;28;21885;-70
2022/07/30 05:06:11;;;;;;;17.80;13.20;;;14.00;99.90;;;;;;5042206;28;20474;-70
2022/07/30 05:08:38;;;;;;;16.90;13.38;;;14.00;99.90;;;;;;5029876;28;20588;-70
2022/07/30 05:11:04;;;;;;;17.73;13.02;;;14.10;99.90;;;;;;5029179;28;20068;-70
2022/07/30 05:13:30;;;;;;;20.77;12.55;;;14.10;99.90;;;;;;5045179;28;20510;-70
2022/07/30 05:15:55;;;;;;;17.50;13.82;;;14.20;99.90;;;;;;5029227;28;20395;-71
2022/07/30 05:18:21;;;;;;;16.98;12.45;;;14.20;99.90;;;;;;5029320;28;20128;-70
2022/07/30 05:20:47;;;;;;;16.83;14.05;;;14.30;99.90;;;;;;5030300;28;20040;-70
2022/07/30 05:23:13;;;;;;;18.85;14.25;;;14.40;99.90;;;;;;5029029;28;20032;-70
2022/07/30 05:25:38;;;;;;;19.38;13.75;;;14.40;99.90;;;;;;5028363;28;20604;-71
2022/07/30 05:28:04;;;;;;;19.90;14.98;;;14.50;99.90;;;;;;5031837;28;20090;-70
2022/07/30 05:30:30;;;;;;;21.65;14.80;;;14.50;99.90;;;;;;5029044;28;20494;-70
2022/07/30 05:32:55;;;;;;;20.73;14.68;;;14.60;99.90;;;;;;5048468;28;20044;-70
2022/07/30 05:35:21;;;;;;;23.90;15.88;;;14.60;99.90;;;;;;5046377;28;20083;-70
2022/07/30 05:37:47;;;;;;;23.30;15.35;;;14.70;99.90;;;;;;4996784;28;20490;-70
2022/07/30 05:40:13;;;;;;;21.05;15.60;;;14.80;99.90;;;;;;5030400;28;20040;-70
2022/07/30 05:42:39;;;;;;;19.63;16.15;;;14.80;99.90;;;;;;5014132;28;20036;-70
2022/07/30 05:45:05;;;;;;;22.98;15.65;;;14.90;99.90;;;;;;5013885;28;20085;-70
2022/07/30 05:47:31;;;;;;;20.55;15.93;;;14.90;99.90;;;;;;5003064;28;20041;-71
2022/07/30 05:49:57;;;;;;;17.85;14.60;;;15.00;99.90;;;;;;5026333;28;20041;-71
2022/07/30 05:52:22;;;;;;;21.70;16.02;;;15.10;99.90;;;;;;5023454;28;20044;-71
2022/07/30 05:54:48;;;;;;;19.23;14.13;;;15.10;99.90;;;;;;5025390;28;20037;-71
2022/07/30 05:57:14;;;;;;;19.58;14.93;;;15.20;99.90;;;;;;4992811;28;20036;-71
2022/07/30 05:59:39;;;;;;;20.85;15.43;;;15.20;99.90;;;;;;5005515;28;20497;-71
2022/07/30 06:02:05;;;;;;;19.92;14.43;;;15.30;99.90;;;;;;5016122;28;20119;-71
2022/07/30 06:04:31;;;;;;;18.55;14.00;;;15.30;99.90;;;;;;5019489;28;20076;-70
2022/07/30 06:06:56;;;;;;;19.90;13.68;;;15.30;99.90;;;;;;5022171;28;20051;-70
2022/07/30 06:09:22;;;;;;;17.55;13.00;;;15.40;99.90;;;;;;5004092;28;20037;-71
2022/07/30 06:11:48;;;;;;;18.63;12.35;;;15.40;99.90;;;;;;5036724;28;20124;-71
2022/07/30 06:14:13;;;;;;;18.75;12.68;;;15.50;99.90;;;;;;5030832;28;20037;-71
2022/07/30 06:16:39;;;;;;;15.38;12.88;;;15.50;99.90;;;;;;4993988;28;20065;-71
2022/07/30 06:19:05;;;;;;;15.77;11.98;;;15.60;99.90;;;;;;5026843;28;20037;-71
2022/07/30 06:21:31;;;;;;;15.07;11.70;;;15.70;99.90;;;;;;5016696;28;20310;-71
2022/07/30 06:23:56;;;;;;;15.85;12.25;;;15.70;99.90;;;;;;5017249;28;20037;-71
2022/07/30 06:26:22;;;;;;;13.82;11.40;;;15.80;99.90;;;;;;5029807;28;20041;-70
2022/07/30 06:28:48;;;;;;;15.35;12.52;;;15.90;99.90;;;;;;4980333;28;20049;-69
2022/07/30 06:31:14;;;;;;;15.10;11.50;;;16.00;99.90;;;;;;5017747;28;20117;-70
2022/07/30 06:33:39;;;;;;;16.75;11.32;;;16.10;99.90;;;;;;5016183;28;20120;-70
2022/07/30 06:36:05;;;;;;;13.68;11.52;;;16.10;99.90;;;;;;5013372;28;20044;-68
2022/07/30 06:38:31;;;;;;;14.05;11.43;;;16.30;99.90;;;;;;5029814;28;20060;-68
2022/07/30 06:40:57;;;;;;;18.88;11.00;;;16.40;99.90;;;;;;5016860;28;20041;-68
2022/07/30 06:43:23;;;;;;;15.93;11.57;;;16.40;99.90;;;;;;4995935;28;20057;-69
2022/07/30 06:45:49;;;;;;;12.55;10.20;;;16.50;99.90;;;;;;5020204;28;20053;-68
2022/07/30 06:48:14;;;;;;;14.18;10.40;;;16.60;99.90;;;;;;5013734;28;20044;-68
2022/07/30 06:50:40;;;;;;;12.20;10.25;;;16.70;99.90;;;;;;5040077;28;20581;-68
2022/07/30 06:53:06;;;;;;;13.85;10.00;;;16.80;99.90;;;;;;5020997;28;20106;-68
2022/07/30 06:55:32;;;;;;;12.50;9.77;;;16.90;99.90;;;;;;5034716;28;20099;-68
2022/07/30 06:57:58;;;;;;;11.55;8.80;;;17.00;99.90;;;;;;5016325;28;20528;-69
2022/07/30 07:00:24;;;;;;;16.30;9.27;;;17.10;99.90;;;;;;5003441;28;20119;-69
2022/07/30 07:02:50;;;;;;;11.68;9.40;;;17.20;99.90;;;;;;5046924;28;20036;-69
2022/07/30 07:05:16;;;;;;;10.73;8.60;;;17.30;99.90;;;;;;5029934;28;20029;-69
2022/07/30 07:07:42;;;;;;;9.60;7.88;;;17.40;99.90;;;;;;4999898;28;20043;-69
2022/07/30 07:10:09;;;;;;;11.93;8.20;;;17.60;99.90;;;;;;5022543;28;20489;-69
2022/07/30 07:12:35;;;;;;;15.15;8.13;;;17.70;99.90;;;;;;5046923;28;20128;-69
2022/07/30 07:15:00;;;;;;;10.95;8.80;;;17.90;99.90;;;;;;5024828;28;20125;-69
2022/07/30 07:17:27;;;;;;;9.32;8.13;;;18.00;99.90;;;;;;5046711;28;20041;-69
2022/07/30 07:19:52;;;;;;;11.60;8.55;;;18.20;99.90;;;;;;5027915;28;20116;-68
2022/07/30 07:22:18;;;;;;;11.50;8.25;;;18.40;99.90;;;;;;5029469;28;20566;-69
2022/07/30 07:24:44;;;;;;;11.02;7.82;;;18.50;99.90;;;;;;5020893;28;20040;-69
2022/07/30 07:27:09;;;;;;;8.07;7.03;;;18.60;99.90;;;;;;4997568;28;20388;-69
2022/07/30 07:29:35;;;;;;;11.25;7.60;;;18.80;99.90;;;;;;5028528;28;20049;-69
2022/07/30 07:32:01;;;;;;;16.33;9.13;;;18.90;99.90;;;;;;5017463;28;20033;-69
2022/07/30 07:34:27;;;;;;;12.27;8.35;;;19.00;99.90;;;;;;5028807;28;20040;-69
2022/07/30 07:36:52;;;;;;;16.33;8.60;;;19.10;99.90;;;;;;5028406;28;20041;-74
2022/07/30 07:39:18;;;;;;;14.18;8.30;;;19.10;99.90;;;;;;5015340;28;20470;-74
2022/07/30 07:41:44;;;;;;;13.25;8.63;;;19.20;99.90;;;;;;5033849;28;20106;-73
2022/07/30 07:44:09;;;;;;;8.95;7.88;;;19.20;99.90;;;;;;5011545;28;20053;-74
2022/07/30 07:46:36;;;;;;;11.60;8.05;;;19.30;99.90;;;;;;5010022;28;20049;-73
2022/07/30 07:49:02;;;;;;;11.52;8.77;;;19.40;99.90;;;;;;4999728;28;20118;-73
2022/07/30 07:51:28;;;;;;;10.48;8.15;;;19.50;99.90;;;;;;5015364;28;20042;-74
2022/07/30 07:53:54;;;;;;;13.73;8.73;;;19.60;99.90;;;;;;4999775;28;20379;-73
2022/07/30 07:56:19;;;;;;;12.45;9.07;;;19.70;99.90;;;;;;5014913;28;20041;-73
2022/07/30 07:58:46;;;;;;;12.40;8.32;;;19.80;99.90;;;;;;5000064;28;20099;-73
2022/07/30 08:01:12;;;;;;;11.45;8.55;;;19.90;99.90;;;;;;5022777;28;20050;-73
2022/07/30 08:03:38;;;;;;;13.75;9.50;;;19.90;99.90;;;;;;5003218;28;20048;-73
2022/07/30 08:06:04;;;;;;;10.57;8.13;;;20.00;99.90;;;;;;4990158;28;20042;-73
2022/07/30 08:08:29;;;;;;;10.05;8.82;;;20.00;99.90;;;;;;5017126;28;20033;-73
2022/07/30 08:10:55;;;;;;;12.25;8.30;;;20.00;99.90;;;;;;5031057;28;20052;-73
2022/07/30 08:13:22;;;;;;;10.93;8.00;;;20.10;99.90;;;;;;5018620;28;20529;-73
2022/07/30 08:15:48;;;;;;;11.07;8.07;;;20.10;99.90;;;;;;5001675;28;20042;-73
2022/07/30 08:18:14;;;;;;;11.75;8.57;;;20.10;99.90;;;;;;5015836;28;20150;-73
2022/07/30 08:20:40;;;;;;;14.07;9.13;;;20.10;99.90;;;;;;4999244;28;20397;-73
2022/07/30 08:23:06;;;;;;;10.48;7.43;;;20.20;99.90;;;;;;5014644;28;20498;-73
2022/07/30 08:25:33;;;;;;;11.65;8.70;;;20.40;99.90;;;;;;5032541;28;20038;-73
2022/07/30 08:28:01;;;;;;;17.23;9.15;;;20.50;99.90;;;;;;4985471;28;20471;-73
2022/07/30 08:30:28;;;;;;;13.32;8.10;;;20.60;99.90;;;;;;5015282;28;20037;-73
2022/07/30 08:32:53;;;;;;;12.07;8.38;;;20.60;99.90;;;;;;5015681;28;20060;-73
2022/07/30 08:35:19;;;;;;;14.52;8.40;;;20.70;99.90;;;;;;5008424;28;20037;-74
2022/07/30 08:37:45;;;;;;;10.30;8.25;;;20.80;99.90;;;;;;5032314;28;20048;-73
2022/07/30 08:40:11;;;;;;;10.38;8.93;;;20.80;99.90;;;;;;4983478;28;20038;-73
2022/07/30 08:42:37;;;;;;;10.35;8.13;;;20.80;99.90;;;;;;5018590;28;20124;-73
2022/07/30 08:45:04;;;;;;;11.27;7.70;;;21.10;99.90;;;;;;5032942;28;20083;-74
2022/07/30 08:47:32;;;;;;;10.77;8.20;;;21.00;99.90;;;;;;5041057;28;20103;-75
2022/07/30 08:50:04;;;;;;;12.63;8.35;;;21.00;99.90;;;;;;5038034;28;20106;-74
2022/07/30 08:52:35;;;;;;;11.55;8.55;;;21.10;99.90;;;;;;5040927;28;20047;-74
2022/07/30 08:55:03;;;;;;;10.98;7.60;;;21.10;99.90;;;;;;5034702;28;20067;-74
2022/07/30 08:57:29;;;;;;;11.20;7.32;;;21.30;99.90;;;;;;5034514;28;20120;-74
2022/07/30 08:59:59;;;;;;;9.23;7.00;;;21.40;99.90;;;;;;5035013;28;20036;-73
2022/07/30 09:02:25;;;;;;;10.13;7.20;;;21.50;99.90;;;;;;5027071;28;20028;-74
2022/07/30 09:04:51;;;;;;;11.90;7.43;;;21.60;99.90;;;;;;5059965;28;20516;-75
2022/07/30 09:07:17;;;;;;;9.35;5.97;;;21.70;99.90;;;;;;5032589;28;20120;-74
2022/07/30 09:09:43;;;;;;;12.13;6.97;;;21.70;99.90;;;;;;5011854;28;20037;-74
2022/07/30 09:12:41;;;;;;;12.07;6.40;;;21.70;99.90;;;;;;5035364;28;20094;-74
2022/07/30 09:15:07;;;;;;;7.95;5.72;;;21.80;99.90;;;;;;5038135;28;20563;-74
2022/07/30 09:17:59;;;;;;;20.75;6.10;;;21.90;99.90;;;;;;5022696;28;20040;-75
2022/07/30 09:20:32;;;;;;;11.10;5.82;;;22.10;99.90;;;;;;5034577;28;20041;-74
2022/07/30 09:23:01;;;;;;;6.72;5.30;;;22.20;99.90;;;;;;5034273;28;20092;-74
2022/07/30 09:25:46;;;;;;;7.68;4.15;;;22.20;99.90;;;;;;5034051;28;20033;-74
2022/07/30 09:28:12;;;;;;;6.95;4.57;;;22.10;99.90;;;;;;5038391;28;20047;-74
2022/07/30 09:30:48;;;;;;;8.35;5.53;;;22.30;99.90;;;;;;5042830;28;20036;-75
2022/07/30 09:33:14;;;;;;;10.73;5.15;;;22.30;99.90;;;;;;5038568;28;20044;-74
2022/07/30 09:35:41;;;;;;;10.82;4.95;;;22.30;99.90;;;;;;5017963;28;20036;-74
2022/07/30 09:38:08;;;;;;;11.07;5.85;;;22.50;99.90;;;;;;5041183;28;20044;-74
2022/07/30 09:40:33;;;;;;;9.27;5.10;;;22.70;99.90;;;;;;5050582;28;20520;-74
2022/07/30 09:43:05;;;;;;;10.00;4.20;;;22.80;99.90;;;;;;5020907;28;20025;-74
2022/07/30 09:45:31;;;;;;;10.88;4.93;;;23.00;99.90;;;;;;5031165;28;20057;-74
2022/07/30 09:47:57;;;;;;;6.57;3.80;;;23.10;99.90;;;;;;5028222;28;20532;-74
2022/07/30 09:50:23;;;;;;;9.38;3.53;;;23.10;99.90;;;;;;5031596;28;20273;-74
2022/07/30 09:52:50;;;;;;;5.45;3.83;;;23.20;99.90;;;;;;5027470;28;20060;-74
2022/07/30 09:55:30;;;;;;;8.68;4.88;;;23.40;99.90;;;;;;5029863;28;20523;-74
2022/07/30 09:57:59;;;;;;;10.82;4.60;;;23.50;99.90;;;;;;5028620;28;20120;-74
2022/07/30 10:00:27;;;;;;;7.38;4.18;;;23.50;99.90;;;;;;5011256;28;20460;-74
2022/07/30 10:02:53;;;;;;;7.22;3.88;;;23.60;99.90;;;;;;5027009;28;20399;-74
2022/07/30 10:05:20;;;;;;;7.30;4.28;;;23.70;99.90;;;;;;5016895;28;20520;-74
2022/07/30 10:07:53;;;;;;;6.45;3.78;;;23.70;99.90;;;;;;5034021;28;20036;-74
2022/07/30 10:10:22;;;;;;;7.18;3.95;;;23.80;99.90;;;;;;5019446;28;20447;-75
2022/07/30 10:12:51;;;;;;;7.45;4.30;;;23.90;99.90;;;;;;5019090;28;20049;-76
2022/07/30 10:15:22;;;;;;;8.57;4.00;;;23.70;99.90;;;;;;5030009;28;21188;-74
2022/07/30 10:17:49;;;;;;;5.28;4.10;;;23.80;99.90;;;;;;5048955;28;20125;-75
2022/07/30 10:20:15;;;;;;;7.13;3.88;;;23.90;99.90;;;;;;5034420;28;20034;-75
2022/07/30 10:22:41;;;;;;;6.35;3.65;;;23.80;99.90;;;;;;5033867;28;20219;-73
2022/07/30 10:25:08;;;;;;;9.93;3.70;;;23.90;99.90;;;;;;5034722;28;20132;-74
2022/07/30 10:27:34;;;;;;;3.60;3.20;;;24.10;99.90;;;;;;5011969;28;20140;-74
2022/07/30 10:30:00;;;;;;;5.20;3.35;;;24.20;99.90;;;;;;5031060;28;20045;-74
2022/07/30 10:32:27;;;;;;;4.90;3.20;;;24.40;99.70;;;;;;5020400;28;20040;-75
2022/07/30 10:34:53;;;;;;;7.30;3.40;;;24.60;99.30;;;;;;5048817;28;20036;-74
2022/07/30 10:37:21;;;;;;;8.07;3.90;;;24.60;99.10;;;;;;5056221;28;20128;-75
2022/07/30 10:39:55;;;;;;;10.32;3.80;;;24.60;98.80;;;;;;5033284;28;20091;-73
2022/07/30 10:42:48;;;;;;;7.70;3.30;;;24.70;98.60;;;;;;5037401;28;20120;-74
2022/07/30 10:45:23;;;;;;;;;;;24.80;97.50;;;;;;5040581;28;20052;-74
2022/07/30 10:47:50;;;;;;;8.52;3.25;;;24.80;97.80;;;;;;5036456;28;19917;-74
2022/07/30 10:50:17;;;;;;;10.30;3.72;;;24.90;98.50;;;;;;5030554;28;20037;-73
2022/07/30 10:52:53;;;;;;;11.52;3.83;;;25.00;98.00;;;;;;5016786;28;20047;-74
2022/07/30 10:55:23;;;;;;;4.43;3.35;;;25.20;97.90;;;;;;5032529;28;20036;-74
2022/07/30 10:58:11;;;;;;;7.10;3.50;;;25.20;96.70;;;;;;5012272;28;20040;-75
2022/07/30 11:00:52;;;;;;;3.97;2.80;;;25.20;94.80;;;;;;5037537;28;20401;-74
2022/07/30 11:03:30;;;;;;;6.25;3.38;;;25.40;95.50;;;;;;5051212;28;20106;-73
2022/07/30 11:06:26;;;;;;;6.53;2.90;;;25.50;95.80;;;;;;5014584;28;20044;-74
2022/07/30 11:08:52;;;;;;;4.18;2.80;;;25.50;95.00;;;;;;5030156;28;20053;-73
2022/07/30 11:11:20;;;;;;;4.45;2.42;;;25.50;94.80;;;;;;5018394;28;20555;-74
2022/07/30 11:13:59;;;;;;;11.00;3.05;;;25.50;93.70;;;;;;5032107;28;20065;-74
2022/07/30 11:16:31;;;;;;;4.65;2.40;;;25.50;93.50;;;;;;5014354;28;20041;-74
2022/07/30 11:19:15;;;;;;;5.28;2.97;;;25.50;92.80;;;;;;5034959;28;20045;-74
2022/07/30 11:21:42;;;;;;;4.97;2.53;;;25.60;92.90;;;;;;5019240;28;20041;-75
2022/07/30 11:24:46;;;;;;;5.20;2.50;;;25.70;93.30;;;;;;5033621;28;20400;-75
2022/07/30 11:27:45;;;;;;;3.92;2.28;;;25.70;92.70;;;;;;5024519;28;20712;-74
2022/07/30 11:30:14;;;;;;;6.30;2.53;;;25.90;92.60;;;;;;4991113;28;20060;-75
2022/07/30 11:32:42;;;;;;;4.55;2.72;;;25.80;92.10;;;;;;5027905;28;20067;-74
2022/07/30 11:35:15;;;;;;;7.13;2.28;;;25.90;92.10;;;;;;5002407;28;20036;-75
2022/07/30 11:38:00;;;;;;;4.43;2.58;;;26.00;91.70;;;;;;5038711;28;20476;-73
2022/07/30 11:40:50;;;;;;;4.50;2.60;;;26.10;90.60;;;;;;5022319;28;20040;-74
2022/07/30 11:43:24;;;;;;;8.63;2.78;;;26.10;91.00;;;;;;5005276;28;20095;-73
2022/07/30 11:46:11;;;;;;;4.03;1.85;;;26.20;90.60;;;;;;5010392;28;20040;-74
2022/07/30 11:48:41;;;;;;;4.55;2.05;;;26.10;88.40;;;;;;5021510;28;20054;-74
2022/07/30 11:51:08;;;;;;;7.63;2.20;;;26.20;90.30;;;;;;5032957;28;20043;-74
2022/07/30 11:53:34;;;;;;;3.63;1.90;;;26.10;89.60;;;;;;5029912;28;20040;-73
2022/07/30 11:56:01;;;;;;;3.67;2.20;;;26.20;89.20;;;;;;5025804;28;20482;-75
2022/07/30 11:58:36;;;;;;;6.10;2.33;;;26.10;87.50;;;;;;5011714;28;20072;-74
2022/07/30 12:01:03;;;;;;;4.13;2.47;;;26.20;88.90;;;;;;5041599;28;20080;-75
2022/07/30 12:03:33;;;;;;;3.85;2.78;;;26.20;90.30;;;;;;5027683;28;20557;-75
2022/07/30 12:06:08;;;;;;;4.50;2.63;;;26.20;90.40;;;;;;5010442;28;20103;-73
2022/07/30 12:08:41;;;;;;;4.32;2.17;;;26.30;90.20;;;;;;5012552;28;20573;-72
2022/07/30 12:11:07;;;;;;;5.13;2.35;;;26.30;89.50;;;;;;4993554;28;20733;-73
2022/07/30 12:13:33;;;;;;;4.38;2.15;;;26.30;89.30;;;;;;5021668;28;20064;-73
2022/07/30 12:15:59;;;;;;;4.82;2.13;;;26.40;88.10;;;;;;5028968;28;20391;-74
2022/07/30 12:18:29;;;;;;;5.07;2.20;;;26.40;88.60;;;;;;5022429;28;20033;-72
2022/07/30 12:20:58;;;;;;;5.60;2.50;;;26.60;88.30;;;;;;5040346;28;20044;-72
2022/07/30 12:23:25;;;;;;;4.43;2.42;;;26.70;88.20;;;;;;5037116;28;20107;-73
2022/07/30 12:25:51;;;;;;;13.13;2.50;;;26.60;88.00;;;;;;5055308;28;20044;-73
2022/07/30 12:28:26;;;;;;;6.63;2.33;;;26.70;88.30;;;;;;5035328;28;20649;-73
2022/07/30 12:30:53;;;;;;;5.75;2.70;;;26.70;87.70;;;;;;5041816;28;20068;-73
2022/07/30 12:33:19;;;;;;;7.32;2.53;;;26.70;87.10;;;;;;5055145;28;20112;-72
2022/07/30 12:35:47;;;;;;;4.20;2.50;;;26.70;87.20;;;;;;5014600;28;20265;-72
2022/07/30 12:38:13;;;;;;;5.78;2.47;;;26.80;87.30;;;;;;5034021;28;20497;-72
2022/07/30 12:40:59;;;;;;;6.30;2.72;;;26.70;86.00;;;;;;4984518;28;20044;-72
2022/07/30 12:43:48;;;;;;;4.20;2.45;;;26.70;83.20;;;;;;5016828;28;20029;-72